Muleshoe, Texas
Current Conditions -  °F | °C
As of 5:15 PM on Sunday 21 Dec 2014 (Local Time) from KCVN Reporting Station
Clear Clear  
Wind Chill: 55°   Ceiling: Unl
Heat Index: 55°   Visibility: 10mi
Dew Point: 27°   Wind: 21mph
Humidity: 33%   Direction: 280°W
Pressure: 29.64"   Gusts: 31mph
Location:  34.23°N, 102.72°W
Report Text: KCVN 212315Z 28018G27KT 10SM CLR 13/M03 A2964 RMK AO1
Loading
Personal Weather Stations






























Interactive Weather Map New forecast layout! Learn more

10-Day Weather Forecast

Advertisements
Track Severe Weather on mobile